sensor_id;sensor_type;location;lat;lon;timestamp;P1;durP1;ratioP1;P2;durP2;ratioP2
45548;SDS011;31270;48.328;10.096;2023-05-23T00:00:20;20.73;;;15.88;;
45548;SDS011;31270;48.328;10.096;2023-05-23T00:02:46;22.60;;;16.50;;
45548;SDS011;31270;48.328;10.096;2023-05-23T00:05:12;24.77;;;17.08;;
45548;SDS011;31270;48.328;10.096;2023-05-23T00:07:39;23.20;;;16.33;;
45548;SDS011;31270;48.328;10.096;2023-05-23T00:10:05;22.02;;;15.75;;
45548;SDS011;31270;48.328;10.096;2023-05-23T00:12:31;19.63;;;15.05;;
45548;SDS011;31270;48.328;10.096;2023-05-23T00:14:57;22.17;;;15.70;;
45548;SDS011;31270;48.328;10.096;2023-05-23T00:17:23;24.60;;;16.10;;
45548;SDS011;31270;48.328;10.096;2023-05-23T00:19:52;20.35;;;15.60;;
45548;SDS011;31270;48.328;10.096;2023-05-23T00:22:20;20.77;;;15.90;;
45548;SDS011;31270;48.328;10.096;2023-05-23T00:24:45;22.23;;;16.90;;
45548;SDS011;31270;48.328;10.096;2023-05-23T00:27:11;23.52;;;16.42;;
45548;SDS011;31270;48.328;10.096;2023-05-23T00:29:37;21.67;;;16.20;;
45548;SDS011;31270;48.328;10.096;2023-05-23T00:32:02;21.58;;;15.85;;
45548;SDS011;31270;48.328;10.096;2023-05-23T00:34:28;23.42;;;17.42;;
45548;SDS011;31270;48.328;10.096;2023-05-23T00:36:54;22.75;;;16.60;;
45548;SDS011;31270;48.328;10.096;2023-05-23T00:39:19;24.63;;;16.77;;
45548;SDS011;31270;48.328;10.096;2023-05-23T00:41:46;22.80;;;16.58;;
45548;SDS011;31270;48.328;10.096;2023-05-23T00:44:12;22.65;;;16.85;;
45548;SDS011;31270;48.328;10.096;2023-05-23T00:46:38;22.40;;;16.95;;
45548;SDS011;31270;48.328;10.096;2023-05-23T00:49:05;23.05;;;17.10;;
45548;SDS011;31270;48.328;10.096;2023-05-23T00:51:31;27.40;;;17.13;;
45548;SDS011;31270;48.328;10.096;2023-05-23T00:53:57;21.80;;;16.55;;
45548;SDS011;31270;48.328;10.096;2023-05-23T00:56:25;21.90;;;16.52;;
45548;SDS011;31270;48.328;10.096;2023-05-23T00:58:53;21.83;;;16.05;;
45548;SDS011;31270;48.328;10.096;2023-05-23T01:01:18;23.58;;;16.60;;
45548;SDS011;31270;48.328;10.096;2023-05-23T01:03:44;23.48;;;17.13;;
45548;SDS011;31270;48.328;10.096;2023-05-23T01:06:12;25.00;;;17.00;;
45548;SDS011;31270;48.328;10.096;2023-05-23T01:08:38;22.25;;;16.75;;
45548;SDS011;31270;48.328;10.096;2023-05-23T01:11:09;23.05;;;17.98;;
45548;SDS011;31270;48.328;10.096;2023-05-23T01:13:50;25.55;;;17.73;;
45548;SDS011;31270;48.328;10.096;2023-05-23T01:16:35;23.98;;;17.40;;
45548;SDS011;31270;48.328;10.096;2023-05-23T01:21:52;26.90;;;18.10;;
45548;SDS011;31270;48.328;10.096;2023-05-23T01:24:29;23.60;;;16.60;;
45548;SDS011;31270;48.328;10.096;2023-05-23T01:32:29;32.17;;;18.58;;
45548;SDS011;31270;48.328;10.096;2023-05-23T01:34:56;27.98;;;19.15;;
45548;SDS011;31270;48.328;10.096;2023-05-23T01:37:24;30.55;;;20.20;;
45548;SDS011;31270;48.328;10.096;2023-05-23T01:39:50;27.98;;;19.75;;
45548;SDS011;31270;48.328;10.096;2023-05-23T01:42:16;29.10;;;19.92;;
45548;SDS011;31270;48.328;10.096;2023-05-23T01:44:43;31.55;;;20.77;;
45548;SDS011;31270;48.328;10.096;2023-05-23T01:47:09;32.38;;;21.33;;
45548;SDS011;31270;48.328;10.096;2023-05-23T01:49:36;28.75;;;19.75;;
45548;SDS011;31270;48.328;10.096;2023-05-23T01:52:03;28.67;;;19.65;;
45548;SDS011;31270;48.328;10.096;2023-05-23T01:54:30;30.00;;;20.48;;
45548;SDS011;31270;48.328;10.096;2023-05-23T01:56:59;31.23;;;20.20;;
45548;SDS011;31270;48.328;10.096;2023-05-23T01:59:26;28.75;;;19.08;;
45548;SDS011;31270;48.328;10.096;2023-05-23T02:01:51;29.52;;;19.90;;
45548;SDS011;31270;48.328;10.096;2023-05-23T02:04:18;30.65;;;20.73;;
45548;SDS011;31270;48.328;10.096;2023-05-23T02:06:43;29.27;;;19.92;;
45548;SDS011;31270;48.328;10.096;2023-05-23T02:09:10;27.30;;;20.35;;
45548;SDS011;31270;48.328;10.096;2023-05-23T02:11:36;31.58;;;21.52;;
45548;SDS011;31270;48.328;10.096;2023-05-23T02:14:01;32.53;;;22.23;;
45548;SDS011;31270;48.328;10.096;2023-05-23T02:16:27;32.50;;;21.05;;
45548;SDS011;31270;48.328;10.096;2023-05-23T02:18:53;32.38;;;21.65;;
45548;SDS011;31270;48.328;10.096;2023-05-23T02:21:21;34.53;;;20.98;;
45548;SDS011;31270;48.328;10.096;2023-05-23T02:23:47;35.67;;;22.75;;
45548;SDS011;31270;48.328;10.096;2023-05-23T02:26:12;39.40;;;23.92;;
45548;SDS011;31270;48.328;10.096;2023-05-23T02:28:38;39.10;;;23.58;;
45548;SDS011;31270;48.328;10.096;2023-05-23T02:31:04;41.72;;;24.63;;
45548;SDS011;31270;48.328;10.096;2023-05-23T02:33:30;38.60;;;24.80;;
45548;SDS011;31270;48.328;10.096;2023-05-23T02:35:56;41.22;;;25.48;;
45548;SDS011;31270;48.328;10.096;2023-05-23T02:38:22;39.75;;;24.38;;
45548;SDS011;31270;48.328;10.096;2023-05-23T02:40:47;40.88;;;24.63;;
45548;SDS011;31270;48.328;10.096;2023-05-23T02:43:16;44.17;;;25.42;;
45548;SDS011;31270;48.328;10.096;2023-05-23T02:45:41;44.22;;;25.73;;
45548;SDS011;31270;48.328;10.096;2023-05-23T02:48:07;41.13;;;25.40;;
45548;SDS011;31270;48.328;10.096;2023-05-23T02:50:32;40.05;;;24.95;;
45548;SDS011;31270;48.328;10.096;2023-05-23T02:52:58;43.22;;;25.52;;
45548;SDS011;31270;48.328;10.096;2023-05-23T02:55:23;40.58;;;26.52;;
45548;SDS011;31270;48.328;10.096;2023-05-23T02:57:49;43.50;;;26.33;;
45548;SDS011;31270;48.328;10.096;2023-05-23T03:00:15;42.63;;;25.92;;
45548;SDS011;31270;48.328;10.096;2023-05-23T03:02:41;44.15;;;26.45;;
45548;SDS011;31270;48.328;10.096;2023-05-23T03:05:07;45.13;;;26.90;;
45548;SDS011;31270;48.328;10.096;2023-05-23T03:07:33;49.60;;;27.73;;
45548;SDS011;31270;48.328;10.096;2023-05-23T03:09:59;51.40;;;28.70;;
45548;SDS011;31270;48.328;10.096;2023-05-23T03:12:26;51.05;;;28.58;;
45548;SDS011;31270;48.328;10.096;2023-05-23T03:14:52;49.42;;;26.90;;
45548;SDS011;31270;48.328;10.096;2023-05-23T03:17:18;45.15;;;26.85;;
45548;SDS011;31270;48.328;10.096;2023-05-23T03:19:43;38.92;;;23.90;;
45548;SDS011;31270;48.328;10.096;2023-05-23T03:22:09;39.58;;;24.13;;
45548;SDS011;31270;48.328;10.096;2023-05-23T03:24:35;37.70;;;24.08;;
45548;SDS011;31270;48.328;10.096;2023-05-23T03:27:00;38.35;;;23.00;;
45548;SDS011;31270;48.328;10.096;2023-05-23T03:29:26;37.50;;;24.17;;
45548;SDS011;31270;48.328;10.096;2023-05-23T03:31:51;40.25;;;25.52;;
45548;SDS011;31270;48.328;10.096;2023-05-23T03:34:17;44.22;;;25.42;;
45548;SDS011;31270;48.328;10.096;2023-05-23T03:36:43;42.63;;;25.65;;
45548;SDS011;31270;48.328;10.096;2023-05-23T03:39:09;43.47;;;26.30;;
45548;SDS011;31270;48.328;10.096;2023-05-23T03:41:35;42.40;;;25.38;;
45548;SDS011;31270;48.328;10.096;2023-05-23T03:44:01;46.00;;;27.02;;
45548;SDS011;31270;48.328;10.096;2023-05-23T03:46:27;48.47;;;27.17;;
45548;SDS011;31270;48.328;10.096;2023-05-23T03:48:53;46.28;;;27.52;;
45548;SDS011;31270;48.328;10.096;2023-05-23T03:51:19;49.25;;;29.35;;
45548;SDS011;31270;48.328;10.096;2023-05-23T03:53:44;45.40;;;27.83;;
45548;SDS011;31270;48.328;10.096;2023-05-23T03:56:10;46.90;;;27.48;;
45548;SDS011;31270;48.328;10.096;2023-05-23T03:58:36;51.95;;;27.77;;
45548;SDS011;31270;48.328;10.096;2023-05-23T04:01:02;44.75;;;27.55;;
45548;SDS011;31270;48.328;10.096;2023-05-23T04:03:28;51.22;;;27.83;;
45548;SDS011;31270;48.328;10.096;2023-05-23T04:05:57;44.38;;;27.15;;
45548;SDS011;31270;48.328;10.096;2023-05-23T04:08:23;52.20;;;28.17;;
45548;SDS011;31270;48.328;10.096;2023-05-23T04:10:50;44.25;;;27.27;;
45548;SDS011;31270;48.328;10.096;2023-05-23T04:13:15;45.97;;;27.52;;
45548;SDS011;31270;48.328;10.096;2023-05-23T04:15:42;50.20;;;28.67;;
45548;SDS011;31270;48.328;10.096;2023-05-23T04:18:09;49.92;;;28.48;;
45548;SDS011;31270;48.328;10.096;2023-05-23T04:20:34;50.25;;;27.98;;
45548;SDS011;31270;48.328;10.096;2023-05-23T04:23:00;49.63;;;28.52;;
45548;SDS011;31270;48.328;10.096;2023-05-23T04:25:25;46.80;;;27.25;;
45548;SDS011;31270;48.328;10.096;2023-05-23T04:27:51;48.45;;;28.80;;
45548;SDS011;31270;48.328;10.096;2023-05-23T04:30:18;53.13;;;29.63;;
45548;SDS011;31270;48.328;10.096;2023-05-23T04:32:44;50.20;;;29.88;;
45548;SDS011;31270;48.328;10.096;2023-05-23T04:35:11;51.20;;;28.98;;
45548;SDS011;31270;48.328;10.096;2023-05-23T04:37:36;49.67;;;29.65;;
45548;SDS011;31270;48.328;10.096;2023-05-23T04:40:03;61.60;;;31.02;;
45548;SDS011;31270;48.328;10.096;2023-05-23T04:42:31;53.90;;;30.30;;
45548;SDS011;31270;48.328;10.096;2023-05-23T04:44:57;49.55;;;29.35;;
45548;SDS011;31270;48.328;10.096;2023-05-23T04:47:23;55.65;;;30.23;;
45548;SDS011;31270;48.328;10.096;2023-05-23T04:49:53;52.60;;;30.33;;
45548;SDS011;31270;48.328;10.096;2023-05-23T04:52:20;57.55;;;31.85;;
45548;SDS011;31270;48.328;10.096;2023-05-23T04:54:46;50.95;;;31.00;;
45548;SDS011;31270;48.328;10.096;2023-05-23T04:57:12;58.47;;;32.67;;
45548;SDS011;31270;48.328;10.096;2023-05-23T04:59:38;55.65;;;32.22;;
45548;SDS011;31270;48.328;10.096;2023-05-23T05:02:04;57.15;;;32.67;;
45548;SDS011;31270;48.328;10.096;2023-05-23T05:04:30;60.90;;;31.95;;
45548;SDS011;31270;48.328;10.096;2023-05-23T05:06:56;56.60;;;31.92;;
45548;SDS011;31270;48.328;10.096;2023-05-23T05:09:22;55.67;;;32.40;;
45548;SDS011;31270;48.328;10.096;2023-05-23T05:11:48;58.35;;;32.90;;
45548;SDS011;31270;48.328;10.096;2023-05-23T05:14:14;56.70;;;33.20;;
45548;SDS011;31270;48.328;10.096;2023-05-23T05:16:40;54.40;;;31.42;;
45548;SDS011;31270;48.328;10.096;2023-05-23T05:19:07;56.90;;;32.33;;
45548;SDS011;31270;48.328;10.096;2023-05-23T05:21:33;48.40;;;30.65;;
45548;SDS011;31270;48.328;10.096;2023-05-23T05:23:59;49.90;;;29.52;;
45548;SDS011;31270;48.328;10.096;2023-05-23T05:26:25;45.00;;;29.27;;
45548;SDS011;31270;48.328;10.096;2023-05-23T05:28:52;49.55;;;30.15;;
45548;SDS011;31270;48.328;10.096;2023-05-23T05:31:19;46.53;;;29.25;;
45548;SDS011;31270;48.328;10.096;2023-05-23T05:33:45;53.30;;;30.27;;
45548;SDS011;31270;48.328;10.096;2023-05-23T05:36:12;48.88;;;29.65;;
45548;SDS011;31270;48.328;10.096;2023-05-23T05:38:38;48.53;;;29.85;;
45548;SDS011;31270;48.328;10.096;2023-05-23T05:41:04;49.20;;;28.35;;
45548;SDS011;31270;48.328;10.096;2023-05-23T05:43:29;53.20;;;30.33;;
45548;SDS011;31270;48.328;10.096;2023-05-23T05:45:55;49.38;;;29.80;;
45548;SDS011;31270;48.328;10.096;2023-05-23T05:48:24;52.22;;;30.83;;
45548;SDS011;31270;48.328;10.096;2023-05-23T05:50:50;50.50;;;29.83;;
45548;SDS011;31270;48.328;10.096;2023-05-23T05:53:17;49.17;;;30.15;;
45548;SDS011;31270;48.328;10.096;2023-05-23T05:55:42;52.78;;;29.88;;
45548;SDS011;31270;48.328;10.096;2023-05-23T05:58:08;45.85;;;28.75;;
45548;SDS011;31270;48.328;10.096;2023-05-23T06:00:34;50.58;;;29.67;;
45548;SDS011;31270;48.328;10.096;2023-05-23T06:03:06;53.67;;;31.70;;
45548;SDS011;31270;48.328;10.096;2023-05-23T06:05:33;48.13;;;29.65;;
45548;SDS011;31270;48.328;10.096;2023-05-23T06:07:59;53.30;;;30.60;;
45548;SDS011;31270;48.328;10.096;2023-05-23T06:10:24;49.00;;;30.30;;
45548;SDS011;31270;48.328;10.096;2023-05-23T06:12:50;49.80;;;29.45;;
45548;SDS011;31270;48.328;10.096;2023-05-23T06:15:16;47.80;;;28.90;;
45548;SDS011;31270;48.328;10.096;2023-05-23T06:17:42;42.22;;;28.05;;
45548;SDS011;31270;48.328;10.096;2023-05-23T06:20:08;50.67;;;31.45;;
45548;SDS011;31270;48.328;10.096;2023-05-23T06:22:36;51.03;;;31.55;;
45548;SDS011;31270;48.328;10.096;2023-05-23T06:25:02;54.83;;;31.25;;
45548;SDS011;31270;48.328;10.096;2023-05-23T06:27:28;52.42;;;31.60;;
45548;SDS011;31270;48.328;10.096;2023-05-23T06:29:54;50.25;;;30.85;;
45548;SDS011;31270;48.328;10.096;2023-05-23T06:32:20;51.13;;;31.20;;
45548;SDS011;31270;48.328;10.096;2023-05-23T06:34:45;51.88;;;31.92;;
45548;SDS011;31270;48.328;10.096;2023-05-23T06:37:11;52.80;;;31.25;;
45548;SDS011;31270;48.328;10.096;2023-05-23T06:39:37;53.50;;;32.08;;
45548;SDS011;31270;48.328;10.096;2023-05-23T06:42:03;54.10;;;32.15;;
45548;SDS011;31270;48.328;10.096;2023-05-23T06:44:29;52.75;;;33.08;;
45548;SDS011;31270;48.328;10.096;2023-05-23T06:46:55;48.88;;;31.15;;
45548;SDS011;31270;48.328;10.096;2023-05-23T06:49:23;58.13;;;33.90;;
45548;SDS011;31270;48.328;10.096;2023-05-23T06:51:50;55.83;;;32.65;;
45548;SDS011;31270;48.328;10.096;2023-05-23T06:54:17;53.40;;;31.95;;
45548;SDS011;31270;48.328;10.096;2023-05-23T06:56:43;54.55;;;33.25;;
45548;SDS011;31270;48.328;10.096;2023-05-23T06:59:08;54.05;;;34.10;;
45548;SDS011;31270;48.328;10.096;2023-05-23T07:01:35;57.95;;;32.92;;
45548;SDS011;31270;48.328;10.096;2023-05-23T07:04:02;64.47;;;35.42;;
45548;SDS011;31270;48.328;10.096;2023-05-23T07:06:28;60.75;;;35.03;;
45548;SDS011;31270;48.328;10.096;2023-05-23T07:08:54;59.05;;;34.08;;
45548;SDS011;31270;48.328;10.096;2023-05-23T07:11:20;62.35;;;34.78;;
45548;SDS011;31270;48.328;10.096;2023-05-23T07:13:46;67.15;;;35.15;;
45548;SDS011;31270;48.328;10.096;2023-05-23T07:16:11;58.38;;;33.90;;
45548;SDS011;31270;48.328;10.096;2023-05-23T07:18:37;63.33;;;34.97;;
45548;SDS011;31270;48.328;10.096;2023-05-23T07:21:03;61.20;;;34.20;;
45548;SDS011;31270;48.328;10.096;2023-05-23T07:23:32;57.15;;;34.42;;
45548;SDS011;31270;48.328;10.096;2023-05-23T07:25:59;54.28;;;32.92;;
45548;SDS011;31270;48.328;10.096;2023-05-23T07:28:26;58.38;;;34.25;;
45548;SDS011;31270;48.328;10.096;2023-05-23T07:30:52;55.05;;;32.28;;
45548;SDS011;31270;48.328;10.096;2023-05-23T07:33:18;56.00;;;33.10;;
45548;SDS011;31270;48.328;10.096;2023-05-23T07:35:45;58.60;;;32.95;;
45548;SDS011;31270;48.328;10.096;2023-05-23T07:38:11;51.53;;;31.63;;
45548;SDS011;31270;48.328;10.096;2023-05-23T07:40:37;59.55;;;32.83;;
45548;SDS011;31270;48.328;10.096;2023-05-23T07:43:04;52.00;;;31.98;;
45548;SDS011;31270;48.328;10.096;2023-05-23T07:45:30;49.67;;;31.02;;
45548;SDS011;31270;48.328;10.096;2023-05-23T07:47:56;57.67;;;32.65;;
45548;SDS011;31270;48.328;10.096;2023-05-23T07:50:21;55.63;;;31.88;;
45548;SDS011;31270;48.328;10.096;2023-05-23T07:52:47;54.72;;;31.48;;
45548;SDS011;31270;48.328;10.096;2023-05-23T07:55:15;56.90;;;31.70;;
45548;SDS011;31270;48.328;10.096;2023-05-23T07:57:41;55.63;;;32.72;;
45548;SDS011;31270;48.328;10.096;2023-05-23T08:00:07;59.30;;;33.67;;
45548;SDS011;31270;48.328;10.096;2023-05-23T08:02:34;59.75;;;33.95;;
45548;SDS011;31270;48.328;10.096;2023-05-23T08:05:01;57.78;;;33.35;;
45548;SDS011;31270;48.328;10.096;2023-05-23T08:07:27;59.90;;;33.08;;
45548;SDS011;31270;48.328;10.096;2023-05-23T08:09:53;53.70;;;33.90;;
45548;SDS011;31270;48.328;10.096;2023-05-23T08:12:19;59.85;;;32.97;;
45548;SDS011;31270;48.328;10.096;2023-05-23T08:14:46;48.60;;;29.02;;
45548;SDS011;31270;48.328;10.096;2023-05-23T08:17:12;42.53;;;26.80;;
45548;SDS011;31270;48.328;10.096;2023-05-23T08:19:38;59.67;;;34.42;;
45548;SDS011;31270;48.328;10.096;2023-05-23T08:22:03;64.32;;;36.70;;
45548;SDS011;31270;48.328;10.096;2023-05-23T08:24:29;68.72;;;38.97;;
45548;SDS011;31270;48.328;10.096;2023-05-23T08:26:55;62.63;;;35.92;;
45548;SDS011;31270;48.328;10.096;2023-05-23T08:29:21;61.45;;;34.45;;
45548;SDS011;31270;48.328;10.096;2023-05-23T08:31:47;63.67;;;35.08;;
45548;SDS011;31270;48.328;10.096;2023-05-23T08:34:12;54.25;;;33.08;;
45548;SDS011;31270;48.328;10.096;2023-05-23T08:36:38;57.03;;;30.40;;
45548;SDS011;31270;48.328;10.096;2023-05-23T08:39:06;51.80;;;30.90;;
45548;SDS011;31270;48.328;10.096;2023-05-23T08:41:32;51.67;;;31.58;;
45548;SDS011;31270;48.328;10.096;2023-05-23T08:43:58;56.47;;;32.33;;
45548;SDS011;31270;48.328;10.096;2023-05-23T08:46:24;54.75;;;31.83;;
45548;SDS011;31270;48.328;10.096;2023-05-23T08:48:54;50.63;;;30.95;;
45548;SDS011;31270;48.328;10.096;2023-05-23T08:51:26;51.95;;;31.83;;
45548;SDS011;31270;48.328;10.096;2023-05-23T08:53:53;51.53;;;30.83;;
45548;SDS011;31270;48.328;10.096;2023-05-23T08:56:22;53.88;;;32.60;;
45548;SDS011;31270;48.328;10.096;2023-05-23T08:58:49;50.03;;;32.60;;
45548;SDS011;31270;48.328;10.096;2023-05-23T09:01:17;52.70;;;31.88;;
45548;SDS011;31270;48.328;10.096;2023-05-23T09:03:45;49.63;;;31.30;;
45548;SDS011;31270;48.328;10.096;2023-05-23T09:06:12;54.97;;;33.72;;
45548;SDS011;31270;48.328;10.096;2023-05-23T09:08:38;51.42;;;32.13;;
45548;SDS011;31270;48.328;10.096;2023-05-23T09:11:04;50.53;;;31.83;;
45548;SDS011;31270;48.328;10.096;2023-05-23T09:13:31;48.53;;;31.27;;
45548;SDS011;31270;48.328;10.096;2023-05-23T09:18:26;49.13;;;31.77;;
45548;SDS011;31270;48.328;10.096;2023-05-23T09:21:01;48.25;;;31.52;;
45548;SDS011;31270;48.328;10.096;2023-05-23T09:23:31;44.75;;;30.63;;
45548;SDS011;31270;48.328;10.096;2023-05-23T09:26:04;44.83;;;31.02;;
45548;SDS011;31270;48.328;10.096;2023-05-23T09:28:34;48.03;;;32.35;;
45548;SDS011;31270;48.328;10.096;2023-05-23T09:31:05;50.33;;;31.13;;
45548;SDS011;31270;48.328;10.096;2023-05-23T09:33:37;40.63;;;29.55;;
45548;SDS011;31270;48.328;10.096;2023-05-23T09:36:04;47.17;;;30.17;;
45548;SDS011;31270;48.328;10.096;2023-05-23T09:38:30;50.08;;;30.65;;
45548;SDS011;31270;48.328;10.096;2023-05-23T09:40:57;44.00;;;30.48;;
45548;SDS011;31270;48.328;10.096;2023-05-23T09:43:24;46.58;;;30.58;;
45548;SDS011;31270;48.328;10.096;2023-05-23T09:45:52;39.05;;;29.00;;
45548;SDS011;31270;48.328;10.096;2023-05-23T09:48:19;40.17;;;27.20;;
45548;SDS011;31270;48.328;10.096;2023-05-23T09:50:52;47.53;;;31.75;;
45548;SDS011;31270;48.328;10.096;2023-05-23T09:53:17;51.92;;;33.83;;
45548;SDS011;31270;48.328;10.096;2023-05-23T09:55:45;43.00;;;29.45;;
45548;SDS011;31270;48.328;10.096;2023-05-23T09:58:16;38.28;;;26.92;;
45548;SDS011;31270;48.328;10.096;2023-05-23T10:00:45;39.55;;;26.95;;
45548;SDS011;31270;48.328;10.096;2023-05-23T10:03:13;44.05;;;28.77;;
45548;SDS011;31270;48.328;10.096;2023-05-23T10:08:18;34.78;;;24.23;;
45548;SDS011;31270;48.328;10.096;2023-05-23T10:13:26;33.72;;;24.02;;
45548;SDS011;31270;48.328;10.096;2023-05-23T10:15:54;36.13;;;25.40;;
45548;SDS011;31270;48.328;10.096;2023-05-23T10:18:30;34.42;;;25.08;;
45548;SDS011;31270;48.328;10.096;2023-05-23T10:21:04;36.97;;;25.60;;
45548;SDS011;31270;48.328;10.096;2023-05-23T10:23:35;34.85;;;24.23;;
45548;SDS011;31270;48.328;10.096;2023-05-23T10:26:03;37.75;;;25.38;;
45548;SDS011;31270;48.328;10.096;2023-05-23T10:28:31;37.85;;;25.15;;
45548;SDS011;31270;48.328;10.096;2023-05-23T10:30:58;38.15;;;26.02;;
45548;SDS011;31270;48.328;10.096;2023-05-23T10:33:24;32.05;;;24.45;;
45548;SDS011;31270;48.328;10.096;2023-05-23T10:41:08;31.75;;;24.92;;
45548;SDS011;31270;48.328;10.096;2023-05-23T10:46:07;32.47;;;25.00;;
45548;SDS011;31270;48.328;10.096;2023-05-23T10:48:34;29.63;;;23.73;;
45548;SDS011;31270;48.328;10.096;2023-05-23T10:51:08;32.75;;;24.88;;
45548;SDS011;31270;48.328;10.096;2023-05-23T10:53:37;33.03;;;23.58;;
45548;SDS011;31270;48.328;10.096;2023-05-23T10:56:06;27.30;;;22.13;;
45548;SDS011;31270;48.328;10.096;2023-05-23T10:58:33;31.63;;;23.88;;
45548;SDS011;31270;48.328;10.096;2023-05-23T11:01:00;32.60;;;23.55;;
45548;SDS011;31270;48.328;10.096;2023-05-23T11:06:45;41.47;;;25.33;;
45548;SDS011;31270;48.328;10.096;2023-05-23T11:09:11;32.40;;;23.35;;
45548;SDS011;31270;48.328;10.096;2023-05-23T11:14:19;30.80;;;23.90;;
45548;SDS011;31270;48.328;10.096;2023-05-23T11:16:56;27.52;;;23.10;;
45548;SDS011;31270;48.328;10.096;2023-05-23T11:19:24;26.27;;;21.67;;
45548;SDS011;31270;48.328;10.096;2023-05-23T11:21:55;29.15;;;22.95;;
45548;SDS011;31270;48.328;10.096;2023-05-23T11:29:56;27.35;;;21.92;;
45548;SDS011;31270;48.328;10.096;2023-05-23T11:32:28;27.92;;;22.63;;
45548;SDS011;31270;48.328;10.096;2023-05-23T11:34:59;27.60;;;21.85;;
45548;SDS011;31270;48.328;10.096;2023-05-23T11:37:32;26.63;;;21.63;;
45548;SDS011;31270;48.328;10.096;2023-05-23T11:39:59;29.17;;;23.92;;
45548;SDS011;31270;48.328;10.096;2023-05-23T11:42:44;25.23;;;21.85;;
45548;SDS011;31270;48.328;10.096;2023-05-23T11:45:10;25.85;;;21.25;;
45548;SDS011;31270;48.328;10.096;2023-05-23T11:47:40;25.92;;;22.20;;
45548;SDS011;31270;48.328;10.096;2023-05-23T11:50:07;24.45;;;21.52;;
45548;SDS011;31270;48.328;10.096;2023-05-23T11:52:33;25.77;;;22.63;;
45548;SDS011;31270;48.328;10.096;2023-05-23T11:54:59;24.88;;;20.05;;
45548;SDS011;31270;48.328;10.096;2023-05-23T11:57:26;25.13;;;20.73;;
45548;SDS011;31270;48.328;10.096;2023-05-23T11:59:53;27.88;;;23.00;;
45548;SDS011;31270;48.328;10.096;2023-05-23T12:02:20;23.02;;;20.52;;
45548;SDS011;31270;48.328;10.096;2023-05-23T12:04:49;24.10;;;21.50;;
45548;SDS011;31270;48.328;10.096;2023-05-23T12:07:19;24.98;;;20.83;;
45548;SDS011;31270;48.328;10.096;2023-05-23T12:09:45;23.13;;;19.58;;
45548;SDS011;31270;48.328;10.096;2023-05-23T12:12:11;22.50;;;20.10;;
45548;SDS011;31270;48.328;10.096;2023-05-23T12:14:38;21.48;;;19.20;;
45548;SDS011;31270;48.328;10.096;2023-05-23T12:17:11;24.30;;;21.65;;
45548;SDS011;31270;48.328;10.096;2023-05-23T12:19:38;27.27;;;20.75;;
45548;SDS011;31270;48.328;10.096;2023-05-23T12:22:05;22.55;;;20.15;;
45548;SDS011;31270;48.328;10.096;2023-05-23T12:24:31;18.52;;;16.63;;
45548;SDS011;31270;48.328;10.096;2023-05-23T12:26:58;18.52;;;16.40;;
45548;SDS011;31270;48.328;10.096;2023-05-23T12:29:30;24.08;;;18.83;;
45548;SDS011;31270;48.328;10.096;2023-05-23T12:31:59;23.17;;;19.48;;
45548;SDS011;31270;48.328;10.096;2023-05-23T12:34:27;20.75;;;18.60;;
45548;SDS011;31270;48.328;10.096;2023-05-23T12:36:56;20.15;;;18.05;;
45548;SDS011;31270;48.328;10.096;2023-05-23T12:39:25;20.15;;;17.55;;
45548;SDS011;31270;48.328;10.096;2023-05-23T12:41:57;21.38;;;18.45;;
45548;SDS011;31270;48.328;10.096;2023-05-23T12:44:32;18.38;;;16.52;;
45548;SDS011;31270;48.328;10.096;2023-05-23T12:46:58;19.88;;;17.65;;
45548;SDS011;31270;48.328;10.096;2023-05-23T12:49:24;18.17;;;16.38;;
45548;SDS011;31270;48.328;10.096;2023-05-23T12:51:51;21.98;;;14.95;;
45548;SDS011;31270;48.328;10.096;2023-05-23T12:54:17;17.27;;;15.25;;
45548;SDS011;31270;48.328;10.096;2023-05-23T12:56:43;16.10;;;13.60;;
45548;SDS011;31270;48.328;10.096;2023-05-23T12:59:08;15.98;;;12.65;;
45548;SDS011;31270;48.328;10.096;2023-05-23T13:01:34;18.17;;;14.02;;
45548;SDS011;31270;48.328;10.096;2023-05-23T13:04:00;17.00;;;15.30;;
45548;SDS011;31270;48.328;10.096;2023-05-23T13:06:26;18.58;;;16.25;;
45548;SDS011;31270;48.328;10.096;2023-05-23T13:08:52;20.92;;;16.63;;
45548;SDS011;31270;48.328;10.096;2023-05-23T13:11:21;23.45;;;17.83;;
45548;SDS011;31270;48.328;10.096;2023-05-23T13:13:48;19.83;;;17.55;;
45548;SDS011;31270;48.328;10.096;2023-05-23T13:16:15;21.50;;;17.30;;
45548;SDS011;31270;48.328;10.096;2023-05-23T13:18:42;18.35;;;16.23;;
45548;SDS011;31270;48.328;10.096;2023-05-23T13:21:08;17.58;;;15.23;;
45548;SDS011;31270;48.328;10.096;2023-05-23T13:23:34;18.67;;;16.25;;
45548;SDS011;31270;48.328;10.096;2023-05-23T13:26:02;16.40;;;14.70;;
45548;SDS011;31270;48.328;10.096;2023-05-23T13:28:29;16.92;;;15.13;;
45548;SDS011;31270;48.328;10.096;2023-05-23T13:30:55;18.35;;;15.80;;
45548;SDS011;31270;48.328;10.096;2023-05-23T13:33:20;17.95;;;14.07;;
45548;SDS011;31270;48.328;10.096;2023-05-23T13:35:47;16.85;;;13.50;;
45548;SDS011;31270;48.328;10.096;2023-05-23T13:38:15;15.80;;;13.45;;
45548;SDS011;31270;48.328;10.096;2023-05-23T13:40:42;16.35;;;14.40;;
45548;SDS011;31270;48.328;10.096;2023-05-23T13:43:09;18.17;;;14.48;;
45548;SDS011;31270;48.328;10.096;2023-05-23T13:45:35;22.23;;;15.65;;
45548;SDS011;31270;48.328;10.096;2023-05-23T13:48:01;17.65;;;14.35;;
45548;SDS011;31270;48.328;10.096;2023-05-23T13:50:28;15.27;;;13.68;;
45548;SDS011;31270;48.328;10.096;2023-05-23T13:52:53;17.90;;;14.05;;
45548;SDS011;31270;48.328;10.096;2023-05-23T13:55:20;19.10;;;14.77;;
45548;SDS011;31270;48.328;10.096;2023-05-23T13:57:46;15.38;;;12.55;;
45548;SDS011;31270;48.328;10.096;2023-05-23T14:00:12;17.20;;;14.23;;
45548;SDS011;31270;48.328;10.096;2023-05-23T14:02:39;16.67;;;14.35;;
45548;SDS011;31270;48.328;10.096;2023-05-23T14:05:05;17.23;;;15.43;;
45548;SDS011;31270;48.328;10.096;2023-05-23T14:07:32;16.90;;;15.05;;
45548;SDS011;31270;48.328;10.096;2023-05-23T14:09:58;15.82;;;14.10;;
45548;SDS011;31270;48.328;10.096;2023-05-23T14:12:24;17.77;;;13.73;;
45548;SDS011;31270;48.328;10.096;2023-05-23T14:14:51;14.02;;;12.57;;
45548;SDS011;31270;48.328;10.096;2023-05-23T14:17:17;14.45;;;12.70;;
45548;SDS011;31270;48.328;10.096;2023-05-23T14:19:42;18.00;;;13.43;;
45548;SDS011;31270;48.328;10.096;2023-05-23T14:22:09;17.55;;;14.57;;
45548;SDS011;31270;48.328;10.096;2023-05-23T14:24:35;17.70;;;13.30;;
45548;SDS011;31270;48.328;10.096;2023-05-23T14:27:01;15.73;;;12.63;;
45548;SDS011;31270;48.328;10.096;2023-05-23T14:29:26;15.55;;;13.65;;
45548;SDS011;31270;48.328;10.096;2023-05-23T14:31:52;15.18;;;13.57;;
45548;SDS011;31270;48.328;10.096;2023-05-23T14:34:17;18.13;;;14.77;;
45548;SDS011;31270;48.328;10.096;2023-05-23T14:36:43;14.73;;;13.05;;
45548;SDS011;31270;48.328;10.096;2023-05-23T14:39:08;18.83;;;14.40;;
45548;SDS011;31270;48.328;10.096;2023-05-23T14:41:35;17.23;;;13.75;;